createdAt,value
2023-06-20T00:00:41.469Z,23.43
2023-06-20T00:03:44.311Z,24.22
2023-06-20T00:06:13.239Z,22.80
2023-06-20T00:08:42.043Z,21.60
2023-06-20T00:11:10.909Z,20.79
2023-06-20T00:13:43.951Z,20.17
2023-06-20T00:16:13.481Z,19.68
2023-06-20T00:18:42.537Z,19.68
2023-06-20T00:21:11.385Z,21.45
2023-06-20T00:23:43.594Z,22.82
2023-06-20T00:26:12.381Z,21.91
2023-06-20T00:28:41.498Z,20.84
2023-06-20T00:31:10.322Z,20.07
2023-06-20T00:33:39.148Z,19.49
2023-06-20T00:36:08.177Z,19.50
2023-06-20T00:38:37.034Z,21.22
2023-06-20T00:41:05.855Z,22.88
2023-06-20T00:43:34.675Z,23.64
2023-06-20T00:46:03.559Z,22.48
2023-06-20T00:48:32.531Z,21.29
2023-06-20T00:51:01.378Z,20.46
2023-06-20T00:53:30.217Z,19.83
2023-06-20T00:56:00.040Z,19.66
2023-06-20T00:58:28.921Z,21.25
2023-06-20T01:00:57.843Z,22.49
2023-06-20T01:03:26.988Z,21.62
2023-06-20T01:06:16.253Z,20.58
2023-06-20T01:08:47.701Z,19.76
2023-06-20T01:11:30.866Z,19.17
2023-06-20T01:13:59.665Z,19.22
2023-06-20T01:16:47.220Z,20.99
2023-06-20T01:19:31.346Z,22.94
2023-06-20T01:22:01.484Z,23.50
2023-06-20T01:24:45.583Z,22.14
2023-06-20T01:27:25.310Z,20.84
2023-06-20T01:29:56.007Z,19.98
2023-06-20T01:32:25.682Z,19.38
2023-06-20T01:35:02.298Z,18.93
2023-06-20T01:37:34.270Z,19.02
2023-06-20T01:40:03.894Z,20.68
2023-06-20T01:42:33.551Z,22.27
2023-06-20T01:45:03.418Z,23.05
2023-06-20T01:47:33.457Z,21.87
2023-06-20T01:50:03.366Z,20.69
2023-06-20T01:52:33.800Z,19.87
2023-06-20T01:55:05.537Z,19.25
2023-06-20T01:57:35.447Z,19.13
2023-06-20T02:00:09.838Z,20.75
2023-06-20T02:02:38.980Z,22.06
2023-06-20T02:05:08.975Z,21.22
2023-06-20T02:07:38.301Z,20.19
2023-06-20T02:10:07.353Z,19.44
2023-06-20T02:12:36.527Z,18.87
2023-06-20T02:15:05.842Z,18.83
2023-06-20T02:17:35.326Z,20.47
2023-06-20T02:20:05.979Z,22.23
2023-06-20T02:22:36.901Z,22.91
2023-06-20T02:25:07.682Z,21.64
2023-06-20T02:27:38.769Z,20.36
2023-06-20T02:30:11.396Z,19.45
2023-06-20T02:32:42.177Z,19.24
2023-06-20T02:35:13.073Z,20.78
2023-06-20T02:37:42.797Z,21.81
2023-06-20T02:40:11.957Z,20.91
2023-06-20T02:42:41.624Z,19.90
2023-06-20T02:45:12.416Z,19.17
2023-06-20T02:48:00.585Z,18.94
2023-06-20T02:50:42.519Z,20.22
2023-06-20T02:53:11.956Z,21.53
2023-06-20T02:55:41.083Z,22.20
2023-06-20T02:58:12.854Z,21.22
2023-06-20T03:00:44.510Z,20.19
2023-06-20T03:03:15.474Z,19.47
2023-06-20T03:05:44.708Z,19.26
2023-06-20T03:08:14.668Z,20.44
2023-06-20T03:10:43.978Z,21.86
2023-06-20T03:13:16.239Z,22.58
2023-06-20T03:15:45.113Z,21.54
2023-06-20T03:18:14.071Z,20.50
2023-06-20T03:20:44.979Z,19.76
2023-06-20T03:23:14.659Z,19.57
2023-06-20T03:25:46.921Z,20.76
2023-06-20T03:28:24.707Z,22.16
2023-06-20T03:31:16.656Z,22.77
2023-06-20T03:33:47.403Z,21.65
2023-06-20T03:36:17.039Z,20.64
2023-06-20T03:38:46.067Z,19.93
2023-06-20T03:41:15.092Z,19.78
2023-06-20T03:43:44.385Z,20.98
2023-06-20T03:46:14.199Z,22.33
2023-06-20T03:48:43.078Z,23.10
2023-06-20T03:51:12.116Z,22.24
2023-06-20T03:53:40.996Z,21.26
2023-06-20T03:56:09.848Z,20.58
2023-06-20T03:58:40.368Z,20.43
2023-06-20T04:01:10.289Z,21.58
2023-06-20T04:03:39.305Z,22.88
2023-06-20T04:06:08.181Z,23.51
2023-06-20T04:08:37.778Z,22.63
2023-06-20T04:11:07.582Z,21.68
2023-06-20T04:13:36.418Z,21.01
2023-06-20T04:16:05.266Z,20.89
2023-06-20T04:18:34.115Z,22.10
2023-06-20T04:21:03.711Z,23.26
2023-06-20T04:23:32.735Z,23.82
2023-06-20T04:26:03.111Z,23.00
2023-06-20T04:28:31.927Z,22.11
2023-06-20T04:31:01.440Z,21.52
2023-06-20T04:33:30.263Z,21.42
2023-06-20T04:35:59.098Z,22.42
2023-06-20T04:38:30.117Z,23.60
2023-06-20T04:41:01.973Z,24.24
2023-06-20T04:43:31.291Z,23.42
2023-06-20T04:46:00.313Z,22.54
2023-06-20T04:48:30.359Z,22.20
2023-06-20T04:50:59.545Z,23.23
2023-06-20T04:53:28.620Z,24.47
2023-06-20T04:55:57.575Z,25.14
2023-06-20T04:58:29.472Z,24.23
2023-06-20T05:01:01.421Z,23.25
2023-06-20T05:03:30.358Z,22.59
2023-06-20T05:05:59.419Z,22.16
2023-06-20T05:08:28.380Z,22.14
2023-06-20T05:10:57.187Z,23.37
2023-06-20T05:13:26.024Z,24.91
2023-06-20T05:15:54.931Z,25.89
2023-06-20T05:18:23.827Z,25.00
2023-06-20T05:20:54.479Z,24.07
2023-06-20T05:23:25.049Z,23.45
2023-06-20T05:25:54.348Z,23.05
2023-06-20T05:28:23.244Z,22.78
2023-06-20T05:30:52.206Z,22.94
2023-06-20T05:33:21.181Z,24.48
2023-06-20T05:35:50.139Z,26.01
2023-06-20T05:38:18.935Z,25.60
2023-06-20T05:40:47.793Z,24.96
2023-06-20T05:43:16.664Z,24.58
2023-06-20T05:45:45.699Z,24.39
2023-06-20T05:48:14.874Z,24.30
2023-06-20T05:50:44.103Z,24.27
2023-06-20T05:53:12.898Z,24.31
2023-06-20T05:55:43.551Z,24.38
2023-06-20T05:58:12.331Z,24.76
2023-06-20T06:00:41.120Z,26.07
2023-06-20T06:03:10.278Z,26.13
2023-06-20T06:05:40.982Z,25.82
2023-06-20T06:08:10.890Z,25.57
2023-06-20T06:10:40.658Z,25.40
2023-06-20T06:13:11.069Z,25.28
2023-06-20T06:15:43.044Z,25.19
2023-06-20T06:18:20.466Z,25.12
2023-06-20T06:20:49.281Z,25.11
2023-06-20T06:23:18.115Z,25.11
2023-06-20T06:25:47.053Z,25.12
2023-06-20T06:28:16.405Z,25.16
2023-06-20T06:30:45.289Z,25.20
2023-06-20T06:33:14.648Z,25.23
2023-06-20T06:35:43.545Z,25.25
2023-06-20T06:38:13.710Z,25.26
2023-06-20T06:40:43.609Z,25.28
2023-06-20T06:43:12.617Z,25.29
2023-06-20T06:45:42.326Z,25.32
2023-06-20T06:48:11.228Z,25.34
2023-06-20T06:50:40.122Z,25.37
2023-06-20T06:53:09.683Z,25.40
2023-06-20T06:55:38.810Z,25.42
2023-06-20T06:58:07.591Z,25.41
2023-06-20T07:00:36.848Z,25.40
2023-06-20T07:03:07.426Z,25.41
2023-06-20T07:05:36.357Z,25.44
2023-06-20T07:08:05.300Z,25.49
2023-06-20T07:10:34.308Z,25.58
2023-06-20T07:13:07.209Z,25.69
2023-06-20T07:15:36.173Z,25.81
2023-06-20T07:18:05.300Z,25.90
2023-06-20T07:20:34.187Z,25.99
2023-06-20T07:23:03.160Z,26.06
2023-06-20T07:25:32.075Z,26.15
2023-06-20T07:28:00.936Z,26.26
2023-06-20T07:30:29.855Z,26.40
2023-06-20T07:32:58.774Z,26.51
2023-06-20T07:35:28.003Z,26.61
2023-06-20T07:37:57.367Z,26.72
2023-06-20T07:40:26.281Z,26.81
2023-06-20T07:42:55.124Z,26.88
2023-06-20T07:45:24.458Z,26.96
2023-06-20T07:47:53.470Z,27.03
2023-06-20T07:50:22.669Z,27.07
2023-06-20T07:52:51.509Z,27.12
2023-06-20T07:55:29.080Z,27.22
2023-06-20T07:58:00.148Z,27.33
2023-06-20T08:00:29.798Z,27.44
2023-06-20T08:02:58.949Z,27.57
2023-06-20T08:05:28.299Z,27.67
2023-06-20T08:07:57.504Z,27.74
2023-06-20T08:10:26.455Z,27.80
2023-06-20T08:12:55.238Z,27.90
2023-06-20T08:15:24.216Z,27.96
2023-06-20T08:17:53.295Z,28.01
2023-06-20T08:20:22.158Z,28.14
2023-06-20T08:22:50.951Z,28.21
2023-06-20T08:25:19.784Z,28.34
2023-06-20T08:27:52.155Z,28.55
2023-06-20T08:30:25.509Z,28.60
2023-06-20T09:58:15.350Z,47.51
2023-06-20T10:05:49.464Z,48.97
2023-06-20T10:08:37.515Z,49.61
2023-06-20T10:13:38.183Z,49.92
2023-06-20T10:16:06.993Z,50.90
2023-06-20T10:18:37.762Z,52.41
2023-06-20T10:21:07.825Z,53.58
2023-06-20T10:23:38.273Z,54.17
2023-06-20T10:26:12.660Z,54.49
2023-06-20T10:28:42.976Z,54.96
2023-06-20T10:31:13.277Z,55.37
2023-06-20T10:33:46.295Z,55.67
2023-06-20T10:36:17.926Z,55.83
2023-06-20T10:38:53.232Z,55.58
2023-06-20T10:41:26.570Z,54.61
2023-06-20T11:09:22.647Z,54.35
2023-06-20T11:11:53.733Z,54.08
2023-06-20T11:14:24.105Z,54.10
2023-06-20T11:16:55.180Z,54.29
2023-06-20T11:19:36.577Z,54.63
2023-06-20T11:22:09.136Z,54.83
2023-06-20T11:27:15.423Z,53.30
2023-06-20T11:29:47.035Z,51.04
2023-06-20T11:32:16.654Z,50.21
2023-06-20T11:34:54.426Z,49.98
2023-06-20T11:37:25.398Z,50.02
2023-06-20T11:39:54.274Z,50.13
2023-06-20T11:42:23.135Z,50.43
2023-06-20T11:44:52.209Z,50.14
2023-06-20T11:47:21.679Z,49.95
2023-06-20T11:49:50.575Z,50.28
2023-06-20T11:52:28.247Z,50.73
2023-06-20T11:55:00.476Z,51.13
2023-06-20T11:57:30.922Z,50.86
2023-06-20T12:00:00.768Z,50.61
2023-06-20T12:02:30.013Z,50.20
2023-06-20T12:04:59.506Z,49.54
2023-06-20T12:07:28.448Z,49.18
2023-06-20T12:10:06.192Z,49.16
2023-06-20T12:12:35.001Z,49.44
2023-06-20T12:15:04.037Z,49.78
2023-06-20T12:17:32.848Z,49.60
2023-06-20T12:20:01.690Z,48.81
2023-06-20T12:22:31.639Z,48.43
2023-06-20T12:25:01.993Z,48.50
2023-06-20T12:27:30.759Z,48.76
2023-06-20T12:29:59.556Z,48.96
2023-06-20T12:32:28.647Z,48.96
2023-06-20T12:34:57.516Z,48.92
2023-06-20T12:37:28.527Z,48.92
2023-06-20T12:39:58.161Z,48.85
2023-06-20T12:42:27.567Z,48.60
2023-06-20T12:44:56.837Z,48.59
2023-06-20T12:47:28.227Z,48.77
2023-06-20T12:49:58.014Z,48.81
2023-06-20T12:52:28.988Z,48.64
2023-06-20T12:54:59.471Z,48.51
2023-06-20T12:57:29.491Z,48.32
2023-06-20T13:00:02.699Z,47.98
2023-06-20T13:02:32.713Z,47.15
2023-06-20T13:05:02.357Z,46.21
2023-06-20T13:07:31.504Z,45.41
2023-06-20T13:10:00.215Z,45.13
2023-06-20T13:12:31.880Z,45.23
2023-06-20T13:15:07.164Z,45.32
2023-06-20T13:17:38.530Z,45.21
2023-06-20T13:20:07.767Z,44.86
2023-06-20T13:22:37.300Z,44.01
2023-06-20T13:25:06.245Z,43.25
2023-06-20T13:27:35.234Z,42.80
2023-06-20T13:30:04.376Z,42.36
2023-06-20T13:32:33.222Z,41.70
2023-06-20T13:35:04.186Z,41.07
2023-06-20T13:37:36.305Z,40.72
2023-06-20T13:40:08.965Z,40.59
2023-06-20T13:42:42.984Z,40.32
2023-06-20T13:45:19.231Z,39.84
2023-06-20T13:47:48.194Z,39.38
2023-06-20T13:50:17.470Z,39.26
2023-06-20T13:52:48.750Z,39.31
2023-06-20T13:55:18.167Z,39.41
2023-06-20T13:57:47.541Z,39.49
2023-06-20T14:00:16.388Z,39.60
2023-06-20T14:02:46.637Z,39.67
2023-06-20T14:05:19.000Z,39.65
2023-06-20T14:07:49.875Z,39.62
2023-06-20T14:10:18.618Z,39.60
2023-06-20T14:12:49.388Z,39.61
2023-06-20T14:15:18.246Z,39.62
2023-06-20T14:17:47.854Z,39.58
2023-06-20T14:20:17.247Z,39.54
2023-06-20T14:22:46.155Z,39.46
2023-06-20T14:25:16.152Z,39.45
2023-06-20T14:27:45.567Z,39.45
2023-06-20T14:30:15.096Z,39.36
2023-06-20T14:32:43.947Z,39.34
2023-06-20T14:35:12.759Z,39.28
2023-06-20T14:37:41.991Z,39.16
2023-06-20T14:40:11.147Z,39.01
2023-06-20T14:42:39.869Z,38.92
2023-06-20T14:45:10.671Z,38.82
2023-06-20T14:47:40.065Z,38.66
2023-06-20T14:50:09.446Z,38.55
2023-06-20T14:52:38.504Z,38.44
2023-06-20T14:55:07.386Z,38.33
2023-06-20T14:57:36.192Z,38.17
2023-06-20T15:00:06.493Z,37.99
2023-06-20T15:02:35.381Z,37.86
2023-06-20T15:05:04.570Z,37.74
2023-06-20T15:07:33.361Z,37.51
2023-06-20T15:10:02.694Z,37.22
2023-06-20T15:12:32.432Z,37.11
2023-06-20T15:15:01.165Z,37.12
2023-06-20T15:17:30.149Z,37.08
2023-06-20T15:19:59.027Z,36.99
2023-06-20T15:22:27.896Z,36.93
2023-06-20T15:24:57.432Z,36.93
2023-06-20T15:27:26.271Z,36.89
2023-06-20T15:29:55.056Z,36.86
2023-06-20T15:32:23.840Z,36.81
2023-06-20T15:34:52.550Z,36.76
2023-06-20T15:37:21.478Z,36.71
2023-06-20T15:39:50.243Z,36.63
2023-06-20T15:42:19.326Z,36.54
2023-06-20T15:44:48.474Z,36.47
2023-06-20T15:47:17.206Z,36.36
2023-06-20T15:49:45.914Z,36.21
2023-06-20T15:52:14.743Z,36.09
2023-06-20T15:54:43.485Z,36.01
2023-06-20T15:57:12.342Z,35.92
2023-06-20T15:59:41.857Z,35.81
2023-06-20T16:02:12.511Z,35.68
2023-06-20T16:04:41.557Z,35.53
2023-06-20T16:07:10.433Z,35.39
2023-06-20T16:09:39.188Z,35.26
2023-06-20T16:12:09.754Z,35.11
2023-06-20T16:14:39.068Z,34.93
2023-06-20T16:17:08.181Z,34.80
2023-06-20T16:19:37.208Z,34.69
2023-06-20T16:22:06.358Z,34.59
2023-06-20T16:24:35.248Z,34.48
2023-06-20T16:27:04.157Z,34.35
2023-06-20T16:29:32.916Z,34.21
2023-06-20T16:32:02.002Z,34.04
2023-06-20T16:34:30.756Z,33.85
2023-06-20T16:36:59.747Z,33.65
2023-06-20T16:39:32.413Z,33.49
2023-06-20T16:42:02.290Z,33.34
2023-06-20T16:44:31.106Z,33.20
2023-06-20T16:47:00.203Z,33.07
2023-06-20T16:49:31.508Z,32.94
2023-06-20T16:52:04.692Z,32.81
2023-06-20T16:54:35.612Z,32.64
2023-06-20T16:57:08.814Z,32.48
2023-06-20T16:59:38.565Z,32.33
2023-06-20T17:02:07.400Z,32.17
2023-06-20T17:04:36.388Z,32.01
2023-06-20T17:07:05.864Z,31.83
2023-06-20T17:09:35.599Z,31.65
2023-06-20T17:12:04.864Z,31.45
2023-06-20T17:14:33.692Z,31.24
2023-06-20T17:17:02.449Z,31.04
2023-06-20T17:19:42.603Z,30.83
2023-06-20T17:22:12.001Z,30.65
2023-06-20T17:24:42.490Z,30.52
2023-06-20T17:27:13.728Z,30.37
2023-06-20T17:29:44.042Z,30.26
2023-06-20T17:32:12.953Z,30.14
2023-06-20T17:34:41.948Z,30.04
2023-06-20T17:37:11.480Z,29.93
2023-06-20T17:39:40.265Z,29.80
2023-06-20T17:42:09.124Z,29.67
2023-06-20T17:44:37.846Z,29.55
2023-06-20T17:47:06.979Z,29.42
2023-06-20T17:49:35.840Z,29.31
2023-06-20T17:52:06.733Z,29.19
2023-06-20T17:54:35.657Z,29.06
2023-06-20T17:57:04.521Z,28.93
2023-06-20T17:59:33.306Z,28.78
2023-06-20T18:02:02.379Z,28.62
2023-06-20T18:04:31.176Z,28.46
2023-06-20T18:06:59.902Z,28.30
2023-06-20T18:09:29.008Z,28.13
2023-06-20T18:11:58.066Z,27.97
2023-06-20T18:14:27.710Z,27.81
2023-06-20T18:16:56.532Z,27.65
2023-06-20T18:19:26.677Z,27.56
